sensor_id;sensor_type;location;lat;lon;timestamp;temperature;humidity
15481;DHT22;7842;50.904;6.670;2024-02-21T00:00:55;10.30;99.90
15481;DHT22;7842;50.904;6.670;2024-02-21T00:20:32;10.20;99.90
15481;DHT22;7842;50.904;6.670;2024-02-21T00:22:57;10.20;99.90
15481;DHT22;7842;50.904;6.670;2024-02-21T00:25:23;10.20;99.90
15481;DHT22;7842;50.904;6.670;2024-02-21T00:27:48;10.20;99.90
15481;DHT22;7842;50.904;6.670;2024-02-21T00:30:14;10.20;99.90
15481;DHT22;7842;50.904;6.670;2024-02-21T00:32:40;10.20;99.90
15481;DHT22;7842;50.904;6.670;2024-02-21T00:35:05;10.10;99.90
15481;DHT22;7842;50.904;6.670;2024-02-21T00:37:31;10.10;99.90
15481;DHT22;7842;50.904;6.670;2024-02-21T00:39:57;10.10;99.90
15481;DHT22;7842;50.904;6.670;2024-02-21T00:42:23;10.20;99.90
15481;DHT22;7842;50.904;6.670;2024-02-21T00:44:48;10.10;99.90
15481;DHT22;7842;50.904;6.670;2024-02-21T00:47:14;10.10;99.90
15481;DHT22;7842;50.904;6.670;2024-02-21T00:49:39;10.10;99.90
15481;DHT22;7842;50.904;6.670;2024-02-21T00:52:05;10.10;99.90
15481;DHT22;7842;50.904;6.670;2024-02-21T00:54:30;10.10;99.90
15481;DHT22;7842;50.904;6.670;2024-02-21T00:56:56;10.20;99.90
15481;DHT22;7842;50.904;6.670;2024-02-21T00:59:22;10.00;99.90
15481;DHT22;7842;50.904;6.670;2024-02-21T01:01:47;10.10;99.90
15481;DHT22;7842;50.904;6.670;2024-02-21T01:04:13;10.00;99.90
15481;DHT22;7842;50.904;6.670;2024-02-21T01:06:38;10.00;99.90
15481;DHT22;7842;50.904;6.670;2024-02-21T01:09:05;10.00;99.90
15481;DHT22;7842;50.904;6.670;2024-02-21T01:11:30;10.00;99.90
15481;DHT22;7842;50.904;6.670;2024-02-21T01:13:56;10.00;99.90
15481;DHT22;7842;50.904;6.670;2024-02-21T01:16:22;9.80;99.90
15481;DHT22;7842;50.904;6.670;2024-02-21T01:18:47;9.90;99.90
15481;DHT22;7842;50.904;6.670;2024-02-21T01:21:13;9.90;99.90
15481;DHT22;7842;50.904;6.670;2024-02-21T01:23:39;9.90;99.90
15481;DHT22;7842;50.904;6.670;2024-02-21T01:26:05;9.90;99.90
15481;DHT22;7842;50.904;6.670;2024-02-21T01:28:30;9.90;99.90
15481;DHT22;7842;50.904;6.670;2024-02-21T01:30:57;10.00;99.90
15481;DHT22;7842;50.904;6.670;2024-02-21T01:33:22;9.90;99.90
15481;DHT22;7842;50.904;6.670;2024-02-21T01:35:48;9.90;99.90
15481;DHT22;7842;50.904;6.670;2024-02-21T01:38:15;9.90;99.90
15481;DHT22;7842;50.904;6.670;2024-02-21T01:40:41;10.00;99.90
15481;DHT22;7842;50.904;6.670;2024-02-21T01:43:16;9.90;99.90
15481;DHT22;7842;50.904;6.670;2024-02-21T01:45:42;9.90;99.90
15481;DHT22;7842;50.904;6.670;2024-02-21T01:48:08;9.90;99.90
15481;DHT22;7842;50.904;6.670;2024-02-21T01:50:34;9.90;99.90
15481;DHT22;7842;50.904;6.670;2024-02-21T01:53:00;9.90;99.90
15481;DHT22;7842;50.904;6.670;2024-02-21T01:55:25;9.90;99.90
15481;DHT22;7842;50.904;6.670;2024-02-21T01:57:51;9.90;99.90
15481;DHT22;7842;50.904;6.670;2024-02-21T02:00:17;9.90;99.90
15481;DHT22;7842;50.904;6.670;2024-02-21T02:02:43;9.90;99.90
15481;DHT22;7842;50.904;6.670;2024-02-21T02:05:10;10.00;99.90
15481;DHT22;7842;50.904;6.670;2024-02-21T02:07:36;9.90;99.90
15481;DHT22;7842;50.904;6.670;2024-02-21T02:10:02;9.90;99.90
15481;DHT22;7842;50.904;6.670;2024-02-21T02:12:27;9.90;99.90
15481;DHT22;7842;50.904;6.670;2024-02-21T02:15:00;10.00;99.90
15481;DHT22;7842;50.904;6.670;2024-02-21T02:17:26;9.90;99.90
15481;DHT22;7842;50.904;6.670;2024-02-21T02:19:51;9.90;99.90
15481;DHT22;7842;50.904;6.670;2024-02-21T02:22:22;9.90;99.90
15481;DHT22;7842;50.904;6.670;2024-02-21T02:24:49;10.00;99.90
15481;DHT22;7842;50.904;6.670;2024-02-21T02:27:14;10.00;99.90
15481;DHT22;7842;50.904;6.670;2024-02-21T02:29:40;9.90;99.90
15481;DHT22;7842;50.904;6.670;2024-02-21T02:32:06;9.90;99.90
15481;DHT22;7842;50.904;6.670;2024-02-21T02:34:31;9.90;99.90
15481;DHT22;7842;50.904;6.670;2024-02-21T02:36:57;10.00;99.90
15481;DHT22;7842;50.904;6.670;2024-02-21T02:39:23;9.90;99.90
15481;DHT22;7842;50.904;6.670;2024-02-21T02:41:48;9.90;99.90
15481;DHT22;7842;50.904;6.670;2024-02-21T02:44:14;10.00;99.90
15481;DHT22;7842;50.904;6.670;2024-02-21T02:46:43;10.00;99.90
15481;DHT22;7842;50.904;6.670;2024-02-21T02:49:08;10.00;99.90
15481;DHT22;7842;50.904;6.670;2024-02-21T02:51:34;10.00;99.90
15481;DHT22;7842;50.904;6.670;2024-02-21T02:54:00;10.00;99.90
15481;DHT22;7842;50.904;6.670;2024-02-21T02:56:25;9.90;99.90
15481;DHT22;7842;50.904;6.670;2024-02-21T02:58:51;9.90;99.90
15481;DHT22;7842;50.904;6.670;2024-02-21T03:01:17;9.90;99.90
15481;DHT22;7842;50.904;6.670;2024-02-21T03:03:42;9.90;99.90
15481;DHT22;7842;50.904;6.670;2024-02-21T03:06:08;9.90;99.90
15481;DHT22;7842;50.904;6.670;2024-02-21T03:08:33;9.90;99.90
15481;DHT22;7842;50.904;6.670;2024-02-21T03:10:59;9.90;99.90
15481;DHT22;7842;50.904;6.670;2024-02-21T03:13:26;9.90;99.90
15481;DHT22;7842;50.904;6.670;2024-02-21T03:15:51;9.90;99.90
15481;DHT22;7842;50.904;6.670;2024-02-21T03:18:17;9.90;99.90
15481;DHT22;7842;50.904;6.670;2024-02-21T03:20:42;9.90;99.90
15481;DHT22;7842;50.904;6.670;2024-02-21T03:23:08;9.90;99.90
15481;DHT22;7842;50.904;6.670;2024-02-21T03:25:33;9.90;99.90
15481;DHT22;7842;50.904;6.670;2024-02-21T03:27:59;10.00;99.90
15481;DHT22;7842;50.904;6.670;2024-02-21T03:30:25;9.90;99.90
15481;DHT22;7842;50.904;6.670;2024-02-21T03:32:51;9.90;99.90
15481;DHT22;7842;50.904;6.670;2024-02-21T03:35:16;10.00;99.90
15481;DHT22;7842;50.904;6.670;2024-02-21T03:37:44;9.90;99.90
15481;DHT22;7842;50.904;6.670;2024-02-21T03:40:10;10.00;99.90
15481;DHT22;7842;50.904;6.670;2024-02-21T03:42:36;9.80;99.90
15481;DHT22;7842;50.904;6.670;2024-02-21T03:45:01;9.90;99.90
15481;DHT22;7842;50.904;6.670;2024-02-21T03:47:27;9.90;99.90
15481;DHT22;7842;50.904;6.670;2024-02-21T03:49:52;9.80;99.90
15481;DHT22;7842;50.904;6.670;2024-02-21T03:52:18;9.80;99.90
15481;DHT22;7842;50.904;6.670;2024-02-21T03:54:44;9.80;99.90
15481;DHT22;7842;50.904;6.670;2024-02-21T03:57:10;9.70;99.90
15481;DHT22;7842;50.904;6.670;2024-02-21T03:59:35;9.90;99.90
15481;DHT22;7842;50.904;6.670;2024-02-21T04:02:01;9.70;99.90
15481;DHT22;7842;50.904;6.670;2024-02-21T04:04:29;9.80;99.90
15481;DHT22;7842;50.904;6.670;2024-02-21T04:06:54;9.80;99.90
15481;DHT22;7842;50.904;6.670;2024-02-21T04:09:20;9.80;99.90
15481;DHT22;7842;50.904;6.670;2024-02-21T04:11:46;9.90;99.90
15481;DHT22;7842;50.904;6.670;2024-02-21T04:14:11;9.80;99.90
15481;DHT22;7842;50.904;6.670;2024-02-21T04:16:37;9.80;99.90
15481;DHT22;7842;50.904;6.670;2024-02-21T04:19:03;9.80;99.90
15481;DHT22;7842;50.904;6.670;2024-02-21T04:21:29;9.80;99.90
15481;DHT22;7842;50.904;6.670;2024-02-21T04:23:54;9.70;99.90
15481;DHT22;7842;50.904;6.670;2024-02-21T04:26:20;9.80;99.90
15481;DHT22;7842;50.904;6.670;2024-02-21T04:28:46;9.80;99.90
15481;DHT22;7842;50.904;6.670;2024-02-21T04:31:12;9.70;99.90
15481;DHT22;7842;50.904;6.670;2024-02-21T04:33:38;9.70;99.90
15481;DHT22;7842;50.904;6.670;2024-02-21T04:36:04;9.70;99.90
15481;DHT22;7842;50.904;6.670;2024-02-21T04:38:30;9.70;99.90
15481;DHT22;7842;50.904;6.670;2024-02-21T04:40:56;9.70;99.90
15481;DHT22;7842;50.904;6.670;2024-02-21T04:43:26;9.60;99.90
15481;DHT22;7842;50.904;6.670;2024-02-21T04:45:52;9.70;99.90
15481;DHT22;7842;50.904;6.670;2024-02-21T04:48:19;9.70;99.90
15481;DHT22;7842;50.904;6.670;2024-02-21T04:50:45;9.70;99.90
15481;DHT22;7842;50.904;6.670;2024-02-21T04:53:11;9.70;99.90
15481;DHT22;7842;50.904;6.670;2024-02-21T04:55:36;9.70;99.90
15481;DHT22;7842;50.904;6.670;2024-02-21T04:58:02;9.80;99.90
15481;DHT22;7842;50.904;6.670;2024-02-21T05:00:28;9.80;99.90
15481;DHT22;7842;50.904;6.670;2024-02-21T05:02:53;9.90;99.90
15481;DHT22;7842;50.904;6.670;2024-02-21T05:05:19;9.80;99.90
15481;DHT22;7842;50.904;6.670;2024-02-21T05:07:44;9.80;99.90
15481;DHT22;7842;50.904;6.670;2024-02-21T05:10:10;9.90;99.90
15481;DHT22;7842;50.904;6.670;2024-02-21T05:12:36;10.00;99.90
15481;DHT22;7842;50.904;6.670;2024-02-21T05:15:02;10.00;99.90
15481;DHT22;7842;50.904;6.670;2024-02-21T05:17:28;10.00;99.90
15481;DHT22;7842;50.904;6.670;2024-02-21T05:19:54;10.10;99.90
15481;DHT22;7842;50.904;6.670;2024-02-21T05:22:19;10.00;99.90
15481;DHT22;7842;50.904;6.670;2024-02-21T05:24:45;10.10;99.90
15481;DHT22;7842;50.904;6.670;2024-02-21T05:27:10;10.00;99.90
15481;DHT22;7842;50.904;6.670;2024-02-21T05:29:36;9.90;99.90
15481;DHT22;7842;50.904;6.670;2024-02-21T05:32:02;10.00;99.90
15481;DHT22;7842;50.904;6.670;2024-02-21T05:34:28;10.00;99.90
15481;DHT22;7842;50.904;6.670;2024-02-21T05:36:53;10.00;99.90
15481;DHT22;7842;50.904;6.670;2024-02-21T05:39:19;9.90;99.90
15481;DHT22;7842;50.904;6.670;2024-02-21T05:41:45;10.00;99.90
15481;DHT22;7842;50.904;6.670;2024-02-21T05:44:11;9.90;99.90
15481;DHT22;7842;50.904;6.670;2024-02-21T05:46:37;10.00;99.90
15481;DHT22;7842;50.904;6.670;2024-02-21T05:49:02;10.00;99.90
15481;DHT22;7842;50.904;6.670;2024-02-21T05:51:35;10.00;99.90
15481;DHT22;7842;50.904;6.670;2024-02-21T05:54:01;9.90;99.90
15481;DHT22;7842;50.904;6.670;2024-02-21T05:56:27;9.90;99.90
15481;DHT22;7842;50.904;6.670;2024-02-21T05:58:52;9.90;99.90
15481;DHT22;7842;50.904;6.670;2024-02-21T06:01:18;9.80;99.90
15481;DHT22;7842;50.904;6.670;2024-02-21T06:03:44;9.80;99.90
15481;DHT22;7842;50.904;6.670;2024-02-21T06:06:09;9.90;99.90
15481;DHT22;7842;50.904;6.670;2024-02-21T06:08:35;9.80;99.90
15481;DHT22;7842;50.904;6.670;2024-02-21T06:11:00;9.90;99.90
15481;DHT22;7842;50.904;6.670;2024-02-21T06:13:26;9.80;99.90
15481;DHT22;7842;50.904;6.670;2024-02-21T06:15:52;9.80;99.90
15481;DHT22;7842;50.904;6.670;2024-02-21T06:18:18;10.00;99.90
15481;DHT22;7842;50.904;6.670;2024-02-21T06:20:44;9.80;99.90
15481;DHT22;7842;50.904;6.670;2024-02-21T06:23:15;9.90;99.90
15481;DHT22;7842;50.904;6.670;2024-02-21T06:25:42;9.90;99.90
15481;DHT22;7842;50.904;6.670;2024-02-21T06:28:08;9.90;99.90
15481;DHT22;7842;50.904;6.670;2024-02-21T06:30:34;9.90;99.90
15481;DHT22;7842;50.904;6.670;2024-02-21T06:32:59;10.00;99.90
15481;DHT22;7842;50.904;6.670;2024-02-21T06:35:26;9.90;99.90
15481;DHT22;7842;50.904;6.670;2024-02-21T06:37:52;9.90;99.90
15481;DHT22;7842;50.904;6.670;2024-02-21T06:40:20;10.00;99.90
15481;DHT22;7842;50.904;6.670;2024-02-21T06:42:46;10.00;99.90
15481;DHT22;7842;50.904;6.670;2024-02-21T06:45:11;9.80;99.90
15481;DHT22;7842;50.904;6.670;2024-02-21T06:47:37;9.70;99.90
15481;DHT22;7842;50.904;6.670;2024-02-21T06:50:03;9.50;99.90
15481;DHT22;7842;50.904;6.670;2024-02-21T06:52:29;9.50;99.90
15481;DHT22;7842;50.904;6.670;2024-02-21T06:54:54;9.40;99.90
15481;DHT22;7842;50.904;6.670;2024-02-21T06:57:20;9.40;99.90
15481;DHT22;7842;50.904;6.670;2024-02-21T06:59:45;9.20;99.90
15481;DHT22;7842;50.904;6.670;2024-02-21T07:02:11;9.30;99.90
15481;DHT22;7842;50.904;6.670;2024-02-21T07:04:37;9.30;99.90
15481;DHT22;7842;50.904;6.670;2024-02-21T07:07:02;9.20;99.90
15481;DHT22;7842;50.904;6.670;2024-02-21T07:09:28;9.20;99.90
15481;DHT22;7842;50.904;6.670;2024-02-21T07:11:59;9.20;99.90
15481;DHT22;7842;50.904;6.670;2024-02-21T07:14:25;9.30;99.90
15481;DHT22;7842;50.904;6.670;2024-02-21T07:16:51;9.30;99.90
15481;DHT22;7842;50.904;6.670;2024-02-21T07:19:17;9.40;99.90
15481;DHT22;7842;50.904;6.670;2024-02-21T07:21:42;9.50;99.90
15481;DHT22;7842;50.904;6.670;2024-02-21T07:24:08;9.50;99.90
15481;DHT22;7842;50.904;6.670;2024-02-21T07:26:34;9.50;99.90
15481;DHT22;7842;50.904;6.670;2024-02-21T07:29:00;9.60;99.90
15481;DHT22;7842;50.904;6.670;2024-02-21T07:31:26;9.60;99.90
15481;DHT22;7842;50.904;6.670;2024-02-21T07:33:51;9.70;99.90
15481;DHT22;7842;50.904;6.670;2024-02-21T07:36:28;9.50;99.90
15481;DHT22;7842;50.904;6.670;2024-02-21T07:38:53;9.60;99.90
15481;DHT22;7842;50.904;6.670;2024-02-21T07:41:19;9.80;99.90
15481;DHT22;7842;50.904;6.670;2024-02-21T07:43:44;9.60;99.90
15481;DHT22;7842;50.904;6.670;2024-02-21T07:46:10;9.60;99.90
15481;DHT22;7842;50.904;6.670;2024-02-21T07:48:36;9.70;99.90
15481;DHT22;7842;50.904;6.670;2024-02-21T07:51:01;9.70;99.90
15481;DHT22;7842;50.904;6.670;2024-02-21T07:53:27;9.80;99.90
15481;DHT22;7842;50.904;6.670;2024-02-21T07:55:53;9.80;99.90
15481;DHT22;7842;50.904;6.670;2024-02-21T07:58:18;9.90;99.90
15481;DHT22;7842;50.904;6.670;2024-02-21T08:00:44;9.70;99.90
15481;DHT22;7842;50.904;6.670;2024-02-21T08:03:09;9.70;99.90
15481;DHT22;7842;50.904;6.670;2024-02-21T08:05:35;9.80;99.90
15481;DHT22;7842;50.904;6.670;2024-02-21T08:08:01;9.90;99.90
15481;DHT22;7842;50.904;6.670;2024-02-21T08:10:28;9.70;99.90
15481;DHT22;7842;50.904;6.670;2024-02-21T08:12:53;9.80;99.90
15481;DHT22;7842;50.904;6.670;2024-02-21T08:15:19;9.70;99.90
15481;DHT22;7842;50.904;6.670;2024-02-21T08:17:46;9.80;99.90
15481;DHT22;7842;50.904;6.670;2024-02-21T08:20:11;9.80;99.90
15481;DHT22;7842;50.904;6.670;2024-02-21T08:22:37;9.70;99.90
15481;DHT22;7842;50.904;6.670;2024-02-21T08:25:04;9.80;99.90
15481;DHT22;7842;50.904;6.670;2024-02-21T08:27:31;9.80;99.90
15481;DHT22;7842;50.904;6.670;2024-02-21T08:29:56;9.90;99.90
15481;DHT22;7842;50.904;6.670;2024-02-21T08:32:22;9.90;99.90
15481;DHT22;7842;50.904;6.670;2024-02-21T08:34:47;9.90;99.90
15481;DHT22;7842;50.904;6.670;2024-02-21T08:37:13;9.90;99.90
15481;DHT22;7842;50.904;6.670;2024-02-21T08:39:38;10.00;99.90
15481;DHT22;7842;50.904;6.670;2024-02-21T08:42:05;10.00;99.90
15481;DHT22;7842;50.904;6.670;2024-02-21T08:44:30;10.10;99.90
15481;DHT22;7842;50.904;6.670;2024-02-21T08:46:56;10.00;99.90
15481;DHT22;7842;50.904;6.670;2024-02-21T08:49:22;10.00;99.90
15481;DHT22;7842;50.904;6.670;2024-02-21T08:51:47;10.00;99.90
15481;DHT22;7842;50.904;6.670;2024-02-21T08:54:13;10.20;99.90
15481;DHT22;7842;50.904;6.670;2024-02-21T08:56:38;10.30;99.90
15481;DHT22;7842;50.904;6.670;2024-02-21T08:59:04;10.40;99.90
15481;DHT22;7842;50.904;6.670;2024-02-21T09:01:30;10.40;99.90
15481;DHT22;7842;50.904;6.670;2024-02-21T09:03:55;10.30;99.90
15481;DHT22;7842;50.904;6.670;2024-02-21T09:06:22;10.60;99.90
15481;DHT22;7842;50.904;6.670;2024-02-21T09:08:48;10.70;99.90
15481;DHT22;7842;50.904;6.670;2024-02-21T09:11:14;10.70;99.90
15481;DHT22;7842;50.904;6.670;2024-02-21T09:13:40;10.80;99.90
15481;DHT22;7842;50.904;6.670;2024-02-21T09:16:06;10.70;99.90
15481;DHT22;7842;50.904;6.670;2024-02-21T09:18:31;10.70;99.90
15481;DHT22;7842;50.904;6.670;2024-02-21T09:20:57;10.70;99.90
15481;DHT22;7842;50.904;6.670;2024-02-21T09:23:26;10.60;99.90
15481;DHT22;7842;50.904;6.670;2024-02-21T09:25:51;10.60;99.90
15481;DHT22;7842;50.904;6.670;2024-02-21T09:28:17;10.60;99.90
15481;DHT22;7842;50.904;6.670;2024-02-21T09:30:42;10.70;99.90
15481;DHT22;7842;50.904;6.670;2024-02-21T09:33:08;10.70;99.90
15481;DHT22;7842;50.904;6.670;2024-02-21T09:35:34;10.70;99.90
15481;DHT22;7842;50.904;6.670;2024-02-21T09:37:59;10.80;99.90
15481;DHT22;7842;50.904;6.670;2024-02-21T09:40:25;10.90;99.90
15481;DHT22;7842;50.904;6.670;2024-02-21T09:43:02;11.00;99.90
15481;DHT22;7842;50.904;6.670;2024-02-21T09:45:29;10.90;99.90
15481;DHT22;7842;50.904;6.670;2024-02-21T09:50:34;10.90;99.90
15481;DHT22;7842;50.904;6.670;2024-02-21T09:53:02;10.90;99.90
15481;DHT22;7842;50.904;6.670;2024-02-21T09:55:30;10.90;99.90
15481;DHT22;7842;50.904;6.670;2024-02-21T09:58:03;10.90;99.90
15481;DHT22;7842;50.904;6.670;2024-02-21T10:00:30;11.00;99.90
15481;DHT22;7842;50.904;6.670;2024-02-21T10:02:55;11.10;99.90
15481;DHT22;7842;50.904;6.670;2024-02-21T10:05:21;11.20;99.90
15481;DHT22;7842;50.904;6.670;2024-02-21T10:07:48;11.20;99.90
15481;DHT22;7842;50.904;6.670;2024-02-21T10:10:15;11.10;99.90
15481;DHT22;7842;50.904;6.670;2024-02-21T10:12:49;11.00;99.90
15481;DHT22;7842;50.904;6.670;2024-02-21T10:15:23;11.10;99.90
15481;DHT22;7842;50.904;6.670;2024-02-21T10:17:59;11.10;99.90
15481;DHT22;7842;50.904;6.670;2024-02-21T10:20:26;11.10;99.90
15481;DHT22;7842;50.904;6.670;2024-02-21T10:23:05;11.20;99.90
15481;DHT22;7842;50.904;6.670;2024-02-21T10:25:36;11.20;99.90
15481;DHT22;7842;50.904;6.670;2024-02-21T10:28:07;11.10;99.90
15481;DHT22;7842;50.904;6.670;2024-02-21T10:30:32;11.00;99.90
15481;DHT22;7842;50.904;6.670;2024-02-21T10:32:58;11.10;99.90
15481;DHT22;7842;50.904;6.670;2024-02-21T10:35:31;11.10;99.90
15481;DHT22;7842;50.904;6.670;2024-02-21T10:37:58;11.00;99.90
15481;DHT22;7842;50.904;6.670;2024-02-21T10:40:25;11.10;99.90
15481;DHT22;7842;50.904;6.670;2024-02-21T10:42:58;11.10;99.90
15481;DHT22;7842;50.904;6.670;2024-02-21T10:45:30;11.00;99.90
15481;DHT22;7842;50.904;6.670;2024-02-21T10:50:32;10.80;99.90
15481;DHT22;7842;50.904;6.670;2024-02-21T10:53:11;10.70;99.90
15481;DHT22;7842;50.904;6.670;2024-02-21T10:55:48;10.70;99.90
15481;DHT22;7842;50.904;6.670;2024-02-21T10:58:16;10.70;99.90
15481;DHT22;7842;50.904;6.670;2024-02-21T11:00:43;10.80;99.90
15481;DHT22;7842;50.904;6.670;2024-02-21T11:03:09;10.80;99.90
15481;DHT22;7842;50.904;6.670;2024-02-21T11:05:35;10.80;99.90
15481;DHT22;7842;50.904;6.670;2024-02-21T11:08:03;10.90;99.90
15481;DHT22;7842;50.904;6.670;2024-02-21T11:10:31;10.90;99.90
15481;DHT22;7842;50.904;6.670;2024-02-21T11:15:32;11.10;99.90
15481;DHT22;7842;50.904;6.670;2024-02-21T11:17:58;11.10;99.90
15481;DHT22;7842;50.904;6.670;2024-02-21T11:20:37;11.10;99.90
15481;DHT22;7842;50.904;6.670;2024-02-21T11:23:03;11.20;99.90
15481;DHT22;7842;50.904;6.670;2024-02-21T11:25:29;11.10;99.90
15481;DHT22;7842;50.904;6.670;2024-02-21T11:28:01;11.00;99.90
15481;DHT22;7842;50.904;6.670;2024-02-21T11:30:29;11.10;99.90
15481;DHT22;7842;50.904;6.670;2024-02-21T11:33:02;11.00;99.90
15481;DHT22;7842;50.904;6.670;2024-02-21T11:35:36;11.00;99.90
15481;DHT22;7842;50.904;6.670;2024-02-21T11:38:12;11.10;99.90
15481;DHT22;7842;50.904;6.670;2024-02-21T11:40:43;10.90;99.90
15481;DHT22;7842;50.904;6.670;2024-02-21T11:43:10;11.00;99.90
15481;DHT22;7842;50.904;6.670;2024-02-21T11:45:35;11.10;99.90
15481;DHT22;7842;50.904;6.670;2024-02-21T11:48:01;11.10;99.90
15481;DHT22;7842;50.904;6.670;2024-02-21T11:50:29;11.10;99.90
15481;DHT22;7842;50.904;6.670;2024-02-21T11:52:57;11.20;99.90
15481;DHT22;7842;50.904;6.670;2024-02-21T11:55:22;11.20;99.90
15481;DHT22;7842;50.904;6.670;2024-02-21T11:57:48;11.10;99.90
15481;DHT22;7842;50.904;6.670;2024-02-21T12:00:18;11.10;99.90
15481;DHT22;7842;50.904;6.670;2024-02-21T12:02:47;11.10;99.90
15481;DHT22;7842;50.904;6.670;2024-02-21T12:05:13;11.00;99.90
15481;DHT22;7842;50.904;6.670;2024-02-21T12:07:39;11.00;99.90
15481;DHT22;7842;50.904;6.670;2024-02-21T12:10:12;11.20;99.90
15481;DHT22;7842;50.904;6.670;2024-02-21T12:12:38;11.10;99.90
15481;DHT22;7842;50.904;6.670;2024-02-21T12:15:05;11.20;99.90
15481;DHT22;7842;50.904;6.670;2024-02-21T12:17:39;11.20;99.90
15481;DHT22;7842;50.904;6.670;2024-02-21T12:20:05;11.20;99.90
15481;DHT22;7842;50.904;6.670;2024-02-21T12:22:35;11.10;99.90
15481;DHT22;7842;50.904;6.670;2024-02-21T12:25:07;11.20;99.90
15481;DHT22;7842;50.904;6.670;2024-02-21T12:27:40;11.30;99.90
15481;DHT22;7842;50.904;6.670;2024-02-21T12:30:07;11.40;99.90
15481;DHT22;7842;50.904;6.670;2024-02-21T12:32:35;11.40;99.90
15481;DHT22;7842;50.904;6.670;2024-02-21T12:35:01;11.30;99.90
15481;DHT22;7842;50.904;6.670;2024-02-21T12:37:28;11.30;99.90
15481;DHT22;7842;50.904;6.670;2024-02-21T12:39:54;11.30;99.90
15481;DHT22;7842;50.904;6.670;2024-02-21T12:42:19;11.40;99.90
15481;DHT22;7842;50.904;6.670;2024-02-21T12:44:45;11.60;99.90
15481;DHT22;7842;50.904;6.670;2024-02-21T12:47:11;11.70;99.90
15481;DHT22;7842;50.904;6.670;2024-02-21T12:49:37;11.80;99.90
15481;DHT22;7842;50.904;6.670;2024-02-21T12:52:03;11.80;99.90
15481;DHT22;7842;50.904;6.670;2024-02-21T12:54:29;11.90;99.90
15481;DHT22;7842;50.904;6.670;2024-02-21T12:56:55;12.00;99.90
15481;DHT22;7842;50.904;6.670;2024-02-21T12:59:21;12.10;99.90
15481;DHT22;7842;50.904;6.670;2024-02-21T13:01:47;11.80;99.90
15481;DHT22;7842;50.904;6.670;2024-02-21T13:04:12;11.80;99.90
15481;DHT22;7842;50.904;6.670;2024-02-21T13:06:39;11.90;99.90
15481;DHT22;7842;50.904;6.670;2024-02-21T13:09:05;12.10;99.90
15481;DHT22;7842;50.904;6.670;2024-02-21T13:11:34;12.10;99.90
15481;DHT22;7842;50.904;6.670;2024-02-21T13:14:00;11.90;99.90
15481;DHT22;7842;50.904;6.670;2024-02-21T13:16:25;12.20;99.90
15481;DHT22;7842;50.904;6.670;2024-02-21T13:18:54;12.20;99.90
15481;DHT22;7842;50.904;6.670;2024-02-21T13:21:19;12.10;99.90
15481;DHT22;7842;50.904;6.670;2024-02-21T13:23:45;11.90;99.90
15481;DHT22;7842;50.904;6.670;2024-02-21T13:26:10;11.90;99.90
15481;DHT22;7842;50.904;6.670;2024-02-21T13:28:38;12.00;99.90
15481;DHT22;7842;50.904;6.670;2024-02-21T13:31:03;12.00;99.90
15481;DHT22;7842;50.904;6.670;2024-02-21T13:33:29;12.10;99.90
15481;DHT22;7842;50.904;6.670;2024-02-21T13:35:55;12.10;99.90
15481;DHT22;7842;50.904;6.670;2024-02-21T13:38:20;12.10;99.90
15481;DHT22;7842;50.904;6.670;2024-02-21T13:40:46;12.00;99.90
15481;DHT22;7842;50.904;6.670;2024-02-21T13:43:12;12.10;99.90
15481;DHT22;7842;50.904;6.670;2024-02-21T13:45:38;12.10;99.90
15481;DHT22;7842;50.904;6.670;2024-02-21T13:48:04;12.00;99.90
15481;DHT22;7842;50.904;6.670;2024-02-21T13:50:32;12.00;99.90
15481;DHT22;7842;50.904;6.670;2024-02-21T13:52:59;12.00;99.90
15481;DHT22;7842;50.904;6.670;2024-02-21T13:55:26;12.10;99.90
15481;DHT22;7842;50.904;6.670;2024-02-21T13:57:52;12.20;99.90
15481;DHT22;7842;50.904;6.670;2024-02-21T14:00:18;12.30;99.90
15481;DHT22;7842;50.904;6.670;2024-02-21T14:02:45;12.50;99.90
15481;DHT22;7842;50.904;6.670;2024-02-21T14:05:11;12.70;99.90
15481;DHT22;7842;50.904;6.670;2024-02-21T14:07:38;12.70;99.90
15481;DHT22;7842;50.904;6.670;2024-02-21T14:10:04;12.70;99.90
15481;DHT22;7842;50.904;6.670;2024-02-21T14:12:30;12.80;99.90
15481;DHT22;7842;50.904;6.670;2024-02-21T14:14:57;13.00;99.90
15481;DHT22;7842;50.904;6.670;2024-02-21T14:17:24;13.00;99.90
15481;DHT22;7842;50.904;6.670;2024-02-21T14:19:50;13.10;99.90
15481;DHT22;7842;50.904;6.670;2024-02-21T14:22:17;13.20;99.90
15481;DHT22;7842;50.904;6.670;2024-02-21T14:24:42;13.20;99.90
15481;DHT22;7842;50.904;6.670;2024-02-21T14:27:08;13.20;99.90
15481;DHT22;7842;50.904;6.670;2024-02-21T14:29:34;13.20;99.90
15481;DHT22;7842;50.904;6.670;2024-02-21T14:32:00;13.20;99.90
15481;DHT22;7842;50.904;6.670;2024-02-21T14:34:25;13.10;99.90
15481;DHT22;7842;50.904;6.670;2024-02-21T14:36:52;13.20;99.90
15481;DHT22;7842;50.904;6.670;2024-02-21T14:39:17;13.20;99.90
15481;DHT22;7842;50.904;6.670;2024-02-21T14:41:43;13.10;99.90
15481;DHT22;7842;50.904;6.670;2024-02-21T14:44:09;13.20;99.90
15481;DHT22;7842;50.904;6.670;2024-02-21T14:46:36;13.00;99.90
15481;DHT22;7842;50.904;6.670;2024-02-21T14:49:03;13.00;99.90
15481;DHT22;7842;50.904;6.670;2024-02-21T14:51:29;13.00;99.90
15481;DHT22;7842;50.904;6.670;2024-02-21T14:53:55;12.90;99.90
15481;DHT22;7842;50.904;6.670;2024-02-21T14:56:21;12.90;99.90
15481;DHT22;7842;50.904;6.670;2024-02-21T14:58:48;12.90;99.90
15481;DHT22;7842;50.904;6.670;2024-02-21T15:01:14;12.80;99.90
15481;DHT22;7842;50.904;6.670;2024-02-21T15:03:40;12.70;99.90
15481;DHT22;7842;50.904;6.670;2024-02-21T15:06:06;12.70;99.90
15481;DHT22;7842;50.904;6.670;2024-02-21T15:08:31;12.60;99.90
15481;DHT22;7842;50.904;6.670;2024-02-21T15:10:57;12.60;99.90
15481;DHT22;7842;50.904;6.670;2024-02-21T15:13:23;12.50;99.90
15481;DHT22;7842;50.904;6.670;2024-02-21T15:15:49;12.50;99.90
15481;DHT22;7842;50.904;6.670;2024-02-21T15:18:17;12.50;99.90
15481;DHT22;7842;50.904;6.670;2024-02-21T15:20:42;12.50;99.90
15481;DHT22;7842;50.904;6.670;2024-02-21T15:23:08;12.40;99.90
15481;DHT22;7842;50.904;6.670;2024-02-21T15:25:34;12.40;99.90
15481;DHT22;7842;50.904;6.670;2024-02-21T15:28:00;12.40;99.90
15481;DHT22;7842;50.904;6.670;2024-02-21T15:30:25;12.30;99.90
15481;DHT22;7842;50.904;6.670;2024-02-21T15:32:53;12.40;99.90
15481;DHT22;7842;50.904;6.670;2024-02-21T15:35:21;12.30;99.90
15481;DHT22;7842;50.904;6.670;2024-02-21T15:37:46;12.30;99.90
15481;DHT22;7842;50.904;6.670;2024-02-21T15:40:13;12.20;99.90
15481;DHT22;7842;50.904;6.670;2024-02-21T15:42:40;12.10;99.90
15481;DHT22;7842;50.904;6.670;2024-02-21T15:45:05;12.00;99.90
15481;DHT22;7842;50.904;6.670;2024-02-21T15:47:32;12.00;99.90
15481;DHT22;7842;50.904;6.670;2024-02-21T15:49:58;12.00;99.90
15481;DHT22;7842;50.904;6.670;2024-02-21T15:52:25;12.00;99.90
15481;DHT22;7842;50.904;6.670;2024-02-21T15:54:52;11.90;99.90
15481;DHT22;7842;50.904;6.670;2024-02-21T15:57:17;11.90;99.90
15481;DHT22;7842;50.904;6.670;2024-02-21T15:59:43;11.80;99.90
15481;DHT22;7842;50.904;6.670;2024-02-21T16:02:09;11.80;99.90
15481;DHT22;7842;50.904;6.670;2024-02-21T16:04:34;11.80;99.90
15481;DHT22;7842;50.904;6.670;2024-02-21T16:07:00;11.90;99.90
15481;DHT22;7842;50.904;6.670;2024-02-21T16:09:29;11.80;99.90
15481;DHT22;7842;50.904;6.670;2024-02-21T16:11:58;12.10;99.90